This is the latest recevied weather packets stored in our database for station/object TG5ALY-15. If no packets are shown the sender has not sent any weather packets the latest 10 day(s).
| Time | Temp. | Humidity | Pressure | Rain* | Wind** | Luminosity | Snow |
|---|---|---|---|---|---|---|---|
| 1778035361 | 15° C | 88% | 1030.4 hPa | 0 mm | - | 0 W/m² | - |
| 1778034160 | 15.56° C | 85% | 1029.9 hPa | 0 mm | - | 0 W/m² | - |
| 1778032955 | 15.56° C | 83% | 1029.5 hPa | 0 mm | - | 0 W/m² | - |
| 1778031755 | 15.56° C | 80% | 1029.9 hPa | 0 mm | - | 0 W/m² | - |
| 1778030554 | 16.11° C | 79% | 1029.5 hPa | 0 mm | - | 0 W/m² | - |
| 1778029348 | 16.67° C | 77% | 1029.2 hPa | 0 mm | - | 0 W/m² | - |
| 1778028147 | 17.22° C | 85% | 1029.2 hPa | 0 mm | - | 0 W/m² | - |
| 1778026943 | 17.78° C | 84% | 1028.7 hPa | 0 mm | - | 4 W/m² | - |
| 1778025743 | 18.33° C | 80% | 1028.7 hPa | 0 mm | - | 15 W/m² | - |
| 1778024544 | 20° C | 59% | 1028.3 hPa | 0 mm | - | 53 W/m² | - |
| 1778023338 | 20.56° C | 70% | 1028.3 hPa | 0 mm | - | 107 W/m² | - |
| 1778022134 | 20.56° C | 75% | 1028.3 hPa | 0 mm | - | 159 W/m² | - |
| 1778020932 | 20.56° C | 71% | 1028.3 hPa | 0 mm | - | 265 W/m² | - |
| 1778019729 | 20.56° C | 72% | 1028.3 hPa | 0 mm | - | 130 W/m² | - |
| 1778018524 | 21.11° C | 68% | 1027.9 hPa | 0 mm | - | 106 W/m² | - |
| 1778017320 | 22.22° C | 62% | 1027.9 hPa | 0 mm | - | 200 W/m² | - |
| 1778016119 | 22.78° C | 56% | 1027.9 hPa | 0 mm | - | 625 W/m² | - |
| 1778014919 | 21.67° C | 66% | 1028.3 hPa | 0 mm | - | 122 W/m² | - |
| 1778013715 | 23.33° C | 63% | 1027.9 hPa | 0 mm | - | 208 W/m² | - |
| 1778012512 | 23.89° C | 52% | 1028.3 hPa | 0 mm | - | 820 W/m² | - |
| 1778011313 | 22.22° C | 62% | 1028.3 hPa | 0 mm | - | 868 W/m² | - |
| 1778010111 | 23.33° C | 59% | 1028.7 hPa | 0 mm | - | 923 W/m² | - |
| 1778008906 | 23.33° C | 55% | 1028.3 hPa | 0 mm | - | 995 W/m² | - |
| 1778007704 | 23.89° C | 51% | 1028.7 hPa | 0 mm | - | 1017 W/m² | - |
| 1778006502 | 23.89° C | 37% | 1029.2 hPa | 0 mm | - | 992 W/m² | - |
* Rain latest hour (hover to see other rain measurements)
** Current wind speed in m/s (hover to see current wind gust speed)